createdAt,value
2023-02-21T00:02:33.518Z,60.39
2023-02-21T00:05:18.938Z,60.27
2023-02-21T00:08:04.709Z,60.14
2023-02-21T00:10:50.397Z,60.19
2023-02-21T00:13:36.228Z,60.29
2023-02-21T00:16:23.697Z,60.09
2023-02-21T00:19:09.437Z,60.02
2023-02-21T00:21:54.880Z,59.96
2023-02-21T00:24:40.688Z,59.85
2023-02-21T00:27:26.943Z,59.87
2023-02-21T00:30:12.632Z,59.97
2023-02-21T00:32:59.931Z,59.80
2023-02-21T00:35:45.553Z,59.68
2023-02-21T00:38:31.387Z,59.69
2023-02-21T00:41:17.091Z,59.93
2023-02-21T00:44:03.508Z,59.83
2023-02-21T00:46:49.192Z,59.85
2023-02-21T00:49:36.159Z,59.88
2023-02-21T00:52:22.163Z,59.63
2023-02-21T00:55:07.689Z,59.60
2023-02-21T00:57:53.555Z,59.80
2023-02-21T01:00:41.464Z,59.65
2023-02-21T01:03:28.353Z,60.11
2023-02-21T01:06:15.459Z,59.68
2023-02-21T01:09:03.767Z,59.71
2023-02-21T01:11:50.239Z,59.64
2023-02-21T01:14:36.561Z,59.59
2023-02-21T01:17:22.328Z,59.57
2023-02-21T01:20:11.719Z,59.40
2023-02-21T01:22:58.932Z,59.47
2023-02-21T01:25:44.647Z,59.26
2023-02-21T01:28:29.947Z,59.15
2023-02-21T01:31:16.321Z,59.28
2023-02-21T01:34:03.173Z,59.51
2023-02-21T01:36:49.951Z,59.78
2023-02-21T01:39:36.897Z,59.64
2023-02-21T01:42:22.794Z,59.51
2023-02-21T01:45:23.518Z,59.56
2023-02-21T01:48:09.324Z,59.66
2023-02-21T01:50:55.297Z,59.39
2023-02-21T01:53:43.546Z,59.42
2023-02-21T01:56:30.890Z,59.23
2023-02-21T01:59:20.660Z,59.64
2023-02-21T02:02:11.869Z,59.35
2023-02-21T02:04:59.905Z,59.29
2023-02-21T02:07:45.794Z,59.05
2023-02-21T02:10:32.891Z,58.77
2023-02-21T02:13:26.087Z,59.38
2023-02-21T02:16:01.142Z,59.32
2023-02-21T02:18:57.923Z,59.00
2023-02-21T02:22:05.060Z,59.09
2023-02-21T02:24:44.871Z,59.48
2023-02-21T02:27:46.424Z,59.06
2023-02-21T02:30:58.420Z,59.17
2023-02-21T02:33:56.303Z,59.02
2023-02-21T02:36:31.281Z,58.71
2023-02-21T02:39:12.659Z,58.79
2023-02-21T02:41:51.360Z,58.89
2023-02-21T02:44:26.190Z,58.65
2023-02-21T02:46:57.724Z,58.86
2023-02-21T02:49:31.174Z,58.83
2023-02-21T02:52:05.507Z,58.93
2023-02-21T02:54:34.108Z,58.68
2023-02-21T02:57:04.958Z,58.98
2023-02-21T02:59:34.782Z,58.79
2023-02-21T03:02:28.044Z,58.86
2023-02-21T03:05:21.813Z,59.07
2023-02-21T03:08:01.267Z,59.07
2023-02-21T03:10:39.776Z,58.96
2023-02-21T03:13:14.672Z,58.86
2023-02-21T03:15:51.840Z,58.96
2023-02-21T03:18:27.716Z,59.12
2023-02-21T03:21:00.527Z,58.95
2023-02-21T03:23:34.857Z,58.87
2023-02-21T03:26:08.116Z,58.71
2023-02-21T03:28:43.786Z,58.56
2023-02-21T03:31:14.852Z,59.17
2023-02-21T03:33:43.796Z,58.63
2023-02-21T03:36:12.755Z,58.58
2023-02-21T03:38:42.437Z,58.52
2023-02-21T03:41:14.122Z,58.72
2023-02-21T03:43:42.526Z,58.65
2023-02-21T03:46:10.825Z,58.40
2023-02-21T03:48:39.021Z,58.65
2023-02-21T03:51:07.593Z,58.74
2023-02-21T03:53:35.994Z,58.52
2023-02-21T03:56:06.594Z,58.63
2023-02-21T03:58:37.465Z,58.71
2023-02-21T04:01:06.939Z,58.50
2023-02-21T04:03:35.291Z,58.64
2023-02-21T04:06:04.553Z,58.42
2023-02-21T04:08:32.760Z,58.38
2023-02-21T04:11:00.978Z,58.45
2023-02-21T04:13:31.168Z,58.33
2023-02-21T04:16:02.465Z,58.44
2023-02-21T04:18:32.339Z,58.24
2023-02-21T04:21:01.277Z,58.15
2023-02-21T04:23:29.517Z,58.30
2023-02-21T04:25:57.731Z,58.32
2023-02-21T04:28:26.816Z,58.10
2023-02-21T04:30:56.929Z,58.27
2023-02-21T04:33:25.064Z,58.09
2023-02-21T04:35:53.126Z,58.21
2023-02-21T04:38:21.764Z,58.35
2023-02-21T04:40:50.041Z,58.36
2023-02-21T04:43:18.224Z,58.23
2023-02-21T04:45:46.666Z,58.37
2023-02-21T04:48:16.586Z,58.21
2023-02-21T04:50:45.172Z,58.18
2023-02-21T04:53:13.783Z,58.06
2023-02-21T04:55:41.718Z,58.31
2023-02-21T04:58:09.837Z,58.44
2023-02-21T05:00:38.035Z,58.40
2023-02-21T05:03:06.244Z,58.08
2023-02-21T05:05:35.972Z,58.36
2023-02-21T05:08:04.174Z,58.61
2023-02-21T05:10:45.550Z,58.36
2023-02-21T05:13:14.593Z,58.27
2023-02-21T05:15:43.228Z,58.13
2023-02-21T05:18:11.614Z,58.26
2023-02-21T05:20:41.272Z,58.33
2023-02-21T05:23:13.831Z,58.24
2023-02-21T05:25:42.472Z,58.12
2023-02-21T05:28:10.625Z,58.13
2023-02-21T05:30:38.776Z,58.11
2023-02-21T05:33:06.951Z,57.98
2023-02-21T05:35:34.968Z,57.92
2023-02-21T05:38:04.666Z,58.05
2023-02-21T05:40:33.037Z,58.40
2023-02-21T05:43:01.019Z,58.36
2023-02-21T05:45:29.091Z,58.19
2023-02-21T05:48:00.464Z,58.28
2023-02-21T05:50:28.710Z,58.10
2023-02-21T05:52:58.220Z,58.20
2023-02-21T05:55:27.761Z,58.37
2023-02-21T05:57:56.468Z,58.37
2023-02-21T06:00:28.271Z,58.54
2023-02-21T06:02:57.571Z,58.09
2023-02-21T06:05:26.289Z,58.37
2023-02-21T06:07:54.557Z,58.22
2023-02-21T06:10:23.175Z,58.35
2023-02-21T06:12:53.845Z,58.24
2023-02-21T06:15:23.035Z,58.34
2023-02-21T06:17:52.691Z,58.23
2023-02-21T06:20:21.381Z,58.13
2023-02-21T06:22:49.580Z,58.23
2023-02-21T06:25:18.386Z,58.43
2023-02-21T06:27:46.791Z,58.36
2023-02-21T06:30:16.623Z,58.33
2023-02-21T06:32:44.734Z,58.20
2023-02-21T06:35:13.676Z,58.51
2023-02-21T06:37:41.780Z,58.55
2023-02-21T06:40:10.224Z,58.58
2023-02-21T06:42:38.614Z,58.40
2023-02-21T06:45:07.809Z,58.03
2023-02-21T06:47:37.989Z,58.35
2023-02-21T06:50:10.061Z,58.44
2023-02-21T06:52:38.552Z,58.38
2023-02-21T06:55:07.824Z,58.21
2023-02-21T06:57:36.007Z,58.04
2023-02-21T07:00:04.466Z,58.19
2023-02-21T07:02:32.872Z,58.25
2023-02-21T07:05:02.485Z,57.93
2023-02-21T07:07:30.776Z,57.88
2023-02-21T07:09:58.930Z,57.86
2023-02-21T07:12:27.956Z,58.37
2023-02-21T07:14:56.893Z,58.14
2023-02-21T07:17:25.317Z,58.09
2023-02-21T07:19:55.956Z,58.00
2023-02-21T07:22:26.388Z,58.04
2023-02-21T07:24:55.488Z,57.92
2023-02-21T07:27:24.234Z,58.02
2023-02-21T07:29:53.068Z,58.22
2023-02-21T07:34:52.034Z,58.20
2023-02-21T07:37:23.921Z,58.01
2023-02-21T07:39:55.263Z,58.12
2023-02-21T07:42:25.975Z,58.11
2023-02-21T07:44:59.431Z,58.15
2023-02-21T07:47:29.123Z,58.06
2023-02-21T07:49:58.581Z,58.13
2023-02-21T07:52:27.167Z,58.17
2023-02-21T07:54:57.035Z,58.36
2023-02-21T07:57:25.819Z,58.01
2023-02-21T07:59:53.961Z,58.09
2023-02-21T08:02:25.404Z,58.12
2023-02-21T08:04:54.724Z,58.03
2023-02-21T08:07:23.847Z,58.07
2023-02-21T08:09:52.396Z,58.31
2023-02-21T08:12:22.440Z,57.86
2023-02-21T08:14:50.784Z,57.97
2023-02-21T08:17:19.371Z,58.05
2023-02-21T08:19:47.864Z,58.11
2023-02-21T08:22:16.361Z,58.08
2023-02-21T08:24:44.977Z,57.91
2023-02-21T08:27:15.534Z,57.93
2023-02-21T08:29:47.495Z,57.88
2023-02-21T08:32:16.557Z,57.85
2023-02-21T08:34:46.732Z,57.64
2023-02-21T08:37:17.609Z,57.81
2023-02-21T08:39:48.293Z,57.77
2023-02-21T08:42:17.440Z,57.86
2023-02-21T08:44:49.318Z,57.72
2023-02-21T08:47:19.572Z,57.64
2023-02-21T08:49:48.670Z,57.66
2023-02-21T08:52:18.330Z,57.66
2023-02-21T08:54:47.059Z,57.82
2023-02-21T08:57:16.198Z,57.67
2023-02-21T08:59:46.827Z,57.48
2023-02-21T09:02:19.332Z,57.18
2023-02-21T09:04:48.481Z,57.30
2023-02-21T09:07:17.604Z,57.04
2023-02-21T09:09:50.055Z,57.28
2023-02-21T09:12:18.929Z,57.26
2023-02-21T09:14:54.156Z,56.86
2023-02-21T09:17:22.245Z,56.94
2023-02-21T09:19:50.437Z,57.39
2023-02-21T09:22:19.146Z,57.32
2023-02-21T09:24:47.808Z,57.52
2023-02-21T09:27:17.834Z,57.42
2023-02-21T09:29:47.454Z,57.32
2023-02-21T09:32:17.177Z,57.30
2023-02-21T09:34:45.269Z,57.62
2023-02-21T09:37:13.842Z,57.23
2023-02-21T09:39:42.086Z,57.58
2023-02-21T09:42:15.657Z,57.08
2023-02-21T09:44:43.722Z,57.38
2023-02-21T09:47:27.271Z,57.25
2023-02-21T09:50:02.597Z,57.21
2023-02-21T09:52:36.665Z,57.23
2023-02-21T09:55:12.777Z,57.29
2023-02-21T09:57:40.859Z,57.34
2023-02-21T10:00:18.902Z,57.13
2023-02-21T10:02:57.458Z,57.08
2023-02-21T10:05:40.129Z,57.02
2023-02-21T10:08:23.456Z,56.96
2023-02-21T10:10:56.958Z,56.76
2023-02-21T10:13:37.492Z,56.65
2023-02-21T10:16:13.972Z,56.51
2023-02-21T10:18:49.855Z,56.50
2023-02-21T10:21:24.402Z,56.50
2023-02-21T10:23:57.975Z,56.79
2023-02-21T10:26:29.004Z,56.87
2023-02-21T10:28:57.484Z,56.65
2023-02-21T10:31:32.669Z,56.44
2023-02-21T10:34:02.945Z,56.37
2023-02-21T10:36:31.383Z,56.34
2023-02-21T10:39:05.220Z,56.36
2023-02-21T10:41:40.118Z,56.21
2023-02-21T10:44:14.023Z,56.10
2023-02-21T10:46:48.841Z,55.55
2023-02-21T10:49:29.974Z,55.31
2023-02-21T10:52:11.305Z,55.46
2023-02-21T10:54:39.881Z,55.34
2023-02-21T10:57:12.028Z,55.31
2023-02-21T10:59:42.590Z,55.38
2023-02-21T11:02:31.045Z,55.18
2023-02-21T11:05:14.351Z,55.13
2023-02-21T11:07:43.739Z,55.52
2023-02-21T11:10:31.111Z,55.49
2023-02-21T11:13:23.391Z,55.51
2023-02-21T11:16:10.167Z,55.35
2023-02-21T11:18:38.906Z,54.81
2023-02-21T11:21:16.349Z,54.55
2023-02-21T11:23:59.150Z,54.55
2023-02-21T11:26:27.259Z,54.51
2023-02-21T11:28:55.496Z,54.95
2023-02-21T11:31:29.973Z,54.83
2023-02-21T11:33:59.572Z,54.30
2023-02-21T11:36:31.857Z,54.23
2023-02-21T11:39:07.560Z,54.47
2023-02-21T11:41:47.431Z,54.61
2023-02-21T11:44:28.725Z,53.90
2023-02-21T11:47:06.270Z,54.22
2023-02-21T11:49:45.141Z,54.28
2023-02-21T11:52:23.445Z,53.94
2023-02-21T11:54:51.678Z,53.93
2023-02-21T11:57:26.901Z,53.69
2023-02-21T12:00:08.971Z,54.04
2023-02-21T12:02:53.787Z,53.66
2023-02-21T12:05:46.628Z,53.74
2023-02-21T12:08:48.909Z,53.40
2023-02-21T12:11:37.634Z,53.54
2023-02-21T12:14:19.018Z,53.40
2023-02-21T12:17:03.424Z,53.40
2023-02-21T12:19:59.902Z,53.26
2023-02-21T12:22:42.584Z,53.16
2023-02-21T12:25:22.263Z,53.00
2023-02-21T12:27:57.882Z,53.09
2023-02-21T12:30:50.737Z,52.87
2023-02-21T12:33:30.877Z,53.24
2023-02-21T12:36:16.695Z,53.03
2023-02-21T12:38:55.330Z,52.96
2023-02-21T12:41:44.377Z,53.25
2023-02-21T12:44:15.692Z,53.07
2023-02-21T12:46:51.565Z,52.90
2023-02-21T12:49:25.228Z,52.30
2023-02-21T12:52:00.192Z,52.51
2023-02-21T12:54:41.810Z,52.65
2023-02-21T12:57:15.318Z,52.43
2023-02-21T13:00:07.817Z,53.08
2023-02-21T13:02:45.219Z,52.87
2023-02-21T13:05:17.607Z,52.87
2023-02-21T13:07:49.727Z,53.01
2023-02-21T13:10:22.138Z,52.71
2023-02-21T13:12:58.480Z,52.36
2023-02-21T13:15:37.846Z,52.24
2023-02-21T13:18:09.910Z,52.12
2023-02-21T13:20:42.831Z,52.00
2023-02-21T13:23:30.457Z,51.89
2023-02-21T13:26:15.044Z,51.87
2023-02-21T13:28:45.986Z,51.31
2023-02-21T13:31:22.195Z,51.37
2023-02-21T13:33:52.988Z,50.63
2023-02-21T13:36:26.864Z,50.89
2023-02-21T13:39:01.992Z,51.19
2023-02-21T13:41:34.591Z,51.11
2023-02-21T13:44:08.889Z,50.92
2023-02-21T13:47:16.928Z,50.44
2023-02-21T13:49:56.439Z,50.09
2023-02-21T13:53:00.872Z,49.74
2023-02-21T13:55:31.623Z,49.72
2023-02-21T13:58:31.821Z,49.55
2023-02-21T14:03:57.933Z,49.97
2023-02-21T14:06:38.293Z,49.83
2023-02-21T14:09:13.524Z,50.02
2023-02-21T14:11:49.213Z,49.45
2023-02-21T14:14:25.767Z,49.57
2023-02-21T14:17:00.414Z,49.39
2023-02-21T14:19:37.954Z,49.66
2023-02-21T14:22:13.238Z,48.90
2023-02-21T14:24:44.871Z,48.74
2023-02-21T14:27:34.659Z,48.74
2023-02-21T14:30:29.074Z,48.69
2023-02-21T14:33:13.580Z,48.64
2023-02-21T14:35:52.650Z,48.61
2023-02-21T14:38:25.480Z,48.35
2023-02-21T14:41:10.791Z,48.49
2023-02-21T14:44:07.382Z,48.89
2023-02-21T14:46:56.174Z,48.69
2023-02-21T14:49:52.100Z,48.78
2023-02-21T14:53:02.091Z,48.55
2023-02-21T14:55:55.041Z,48.32
2023-02-21T14:58:49.154Z,48.17
2023-02-21T15:01:41.893Z,48.62
2023-02-21T15:04:19.573Z,47.88
2023-02-21T15:07:07.208Z,47.90
2023-02-21T15:09:35.298Z,47.65
2023-02-21T15:12:09.772Z,47.88
2023-02-21T15:14:41.925Z,47.69
2023-02-21T15:17:18.063Z,47.55
2023-02-21T15:19:46.466Z,47.35
2023-02-21T15:22:24.691Z,47.13
2023-02-21T15:25:15.845Z,47.07
2023-02-21T15:28:03.489Z,46.69
2023-02-21T15:30:37.949Z,46.97
2023-02-21T15:33:21.384Z,46.28
2023-02-21T15:35:52.790Z,46.57
2023-02-21T15:38:26.819Z,46.61
2023-02-21T15:40:59.557Z,46.86
2023-02-21T15:43:44.077Z,46.98
2023-02-21T15:46:18.049Z,46.97
2023-02-21T15:48:46.865Z,46.85
2023-02-21T15:51:15.978Z,46.71
2023-02-21T15:53:45.184Z,46.95
2023-02-21T15:56:23.270Z,47.04
2023-02-21T15:59:14.286Z,47.58
2023-02-21T16:01:43.483Z,47.81
2023-02-21T16:04:20.991Z,48.21
2023-02-21T16:06:55.114Z,48.60
2023-02-21T16:09:30.787Z,48.53
2023-02-21T16:12:03.307Z,48.48
2023-02-21T16:14:40.375Z,48.69
2023-02-21T16:17:22.714Z,48.55
2023-02-21T16:19:54.221Z,49.00
2023-02-21T16:22:54.065Z,48.80
2023-02-21T16:25:25.449Z,48.62
2023-02-21T16:27:55.221Z,48.73
2023-02-21T16:30:27.535Z,48.53
2023-02-21T16:33:01.232Z,48.55
2023-02-21T16:35:29.515Z,49.16
2023-02-21T16:37:59.734Z,49.11
2023-02-21T16:40:29.958Z,48.89
2023-02-21T16:43:01.086Z,48.91
2023-02-21T16:45:32.233Z,49.08
2023-02-21T16:48:01.817Z,48.91
2023-02-21T16:50:32.585Z,48.98
2023-02-21T16:53:01.407Z,48.72
2023-02-21T16:55:29.958Z,48.63
2023-02-21T16:58:01.225Z,48.97
2023-02-21T17:00:32.047Z,48.88
2023-02-21T17:03:00.233Z,49.10
2023-02-21T17:05:28.437Z,48.90
2023-02-21T17:07:57.542Z,49.37
2023-02-21T17:10:26.049Z,49.42
2023-02-21T17:12:54.116Z,49.33
2023-02-21T17:15:23.823Z,49.50
2023-02-21T17:17:55.946Z,49.31
2023-02-21T17:20:24.464Z,49.54
2023-02-21T17:22:53.139Z,49.33
2023-02-21T17:25:22.881Z,49.36
2023-02-21T17:27:51.846Z,49.21
2023-02-21T17:30:23.175Z,49.58
2023-02-21T17:32:54.516Z,49.37
2023-02-21T17:35:25.126Z,49.36
2023-02-21T17:37:54.319Z,49.66
2023-02-21T17:40:24.154Z,49.37
2023-02-21T17:42:52.277Z,49.02
2023-02-21T17:45:21.875Z,49.15
2023-02-21T17:50:53.497Z,49.35
2023-02-21T17:53:22.661Z,49.54
2023-02-21T17:55:51.933Z,49.49
2023-02-21T17:58:20.381Z,49.41
2023-02-21T18:00:48.728Z,49.98
2023-02-21T18:03:16.804Z,50.00
2023-02-21T18:05:44.824Z,50.10
2023-02-21T18:08:14.664Z,50.24
2023-02-21T18:10:46.178Z,50.07
2023-02-21T18:13:15.205Z,50.09
2023-02-21T18:15:43.416Z,50.09
2023-02-21T18:18:13.902Z,50.05
2023-02-21T18:20:42.733Z,50.10
2023-02-21T18:23:10.768Z,50.13
2023-02-21T18:25:40.360Z,50.02
2023-02-21T18:28:09.052Z,50.10
2023-02-21T18:30:37.092Z,50.28
2023-02-21T18:33:05.266Z,50.45
2023-02-21T18:35:33.365Z,50.39
2023-02-21T18:38:01.438Z,50.49
2023-02-21T18:40:35.391Z,50.43
2023-02-21T18:43:07.174Z,50.50
2023-02-21T18:45:35.527Z,50.46
2023-02-21T18:48:04.376Z,50.52
2023-02-21T18:53:24.840Z,50.58
2023-02-21T18:55:54.645Z,50.50
2023-02-21T18:58:24.240Z,50.38
2023-02-21T19:00:52.776Z,50.40
2023-02-21T19:03:21.225Z,50.65
2023-02-21T19:05:51.828Z,50.48
2023-02-21T19:08:21.661Z,50.60
2023-02-21T19:10:49.757Z,50.77
2023-02-21T19:13:28.928Z,50.54
2023-02-21T19:16:00.011Z,50.81
2023-02-21T19:18:30.574Z,50.67
2023-02-21T19:21:00.109Z,50.63
2023-02-21T19:23:30.708Z,50.79
2023-02-21T19:25:59.074Z,50.67
2023-02-21T19:28:28.956Z,50.78
2023-02-21T19:30:58.764Z,50.70
2023-02-21T19:33:26.884Z,50.98
2023-02-21T19:35:54.878Z,51.17
2023-02-21T19:38:22.994Z,50.68
2023-02-21T19:40:51.615Z,50.60
2023-02-21T19:43:19.775Z,50.89
2023-02-21T19:45:48.137Z,50.95
2023-02-21T19:48:17.813Z,50.93
2023-02-21T19:50:45.876Z,50.98
2023-02-21T19:53:14.934Z,50.92
2023-02-21T19:55:43.335Z,50.95
2023-02-21T19:58:11.781Z,50.91
2023-02-21T20:00:44.317Z,51.13
2023-02-21T20:03:12.689Z,51.24
2023-02-21T20:05:42.225Z,51.06
2023-02-21T20:08:10.363Z,51.06
2023-02-21T20:10:38.479Z,51.08
2023-02-21T20:13:08.945Z,51.01
2023-02-21T20:15:41.258Z,51.10
2023-02-21T20:18:09.609Z,51.31
2023-02-21T20:20:37.874Z,51.16
2023-02-21T20:23:08.474Z,51.33
2023-02-21T20:25:37.012Z,50.83
2023-02-21T20:28:07.794Z,51.37
2023-02-21T20:30:36.343Z,51.29
2023-02-21T20:33:07.038Z,51.30
2023-02-21T20:35:36.151Z,51.68
2023-02-21T20:38:06.054Z,51.15
2023-02-21T20:40:36.549Z,51.55
2023-02-21T20:43:05.449Z,51.37
2023-02-21T20:45:34.215Z,51.43
2023-02-21T20:48:02.510Z,51.46
2023-02-21T20:50:31.501Z,51.31
2023-02-21T20:52:59.752Z,51.77
2023-02-21T20:55:28.170Z,51.62
2023-02-21T20:57:58.007Z,51.50
2023-02-21T21:00:30.583Z,51.64
2023-02-21T21:02:59.421Z,51.76
2023-02-21T21:05:28.398Z,51.60
2023-02-21T21:07:57.792Z,51.65
2023-02-21T21:10:26.384Z,51.73
2023-02-21T21:12:54.683Z,51.73
2023-02-21T21:15:25.991Z,52.23
2023-02-21T21:17:54.278Z,51.70
2023-02-21T21:20:25.442Z,51.75
2023-02-21T21:22:53.906Z,51.84
2023-02-21T21:25:22.907Z,52.06
2023-02-21T21:27:52.120Z,51.72
2023-02-21T21:30:23.077Z,51.92
2023-02-21T21:32:52.898Z,51.74
2023-02-21T21:35:22.210Z,52.01
2023-02-21T21:37:51.060Z,51.73
2023-02-21T21:40:19.495Z,51.84
2023-02-21T21:42:50.501Z,51.61
2023-02-21T21:45:23.891Z,52.00
2023-02-21T21:47:58.927Z,51.80
2023-02-21T21:50:28.496Z,51.93
2023-02-21T21:52:59.540Z,52.10
2023-02-21T21:55:30.162Z,51.96
2023-02-21T21:57:59.431Z,51.98
2023-02-21T22:00:29.854Z,51.81
2023-02-21T22:03:02.278Z,52.07
2023-02-21T22:05:32.434Z,51.98
2023-02-21T22:08:01.120Z,51.94
2023-02-21T22:10:30.419Z,52.19
2023-02-21T22:13:00.630Z,51.95
2023-02-21T22:15:30.928Z,52.12
2023-02-21T22:18:04.045Z,52.40
2023-02-21T22:20:33.244Z,52.06
2023-02-21T22:23:01.677Z,52.17
2023-02-21T22:25:32.391Z,51.99
2023-02-21T22:28:09.936Z,52.02
2023-02-21T22:30:39.737Z,52.42
2023-02-21T22:33:14.272Z,52.27
2023-02-21T22:35:43.997Z,52.13
2023-02-21T22:38:14.705Z,52.36
2023-02-21T22:40:43.926Z,52.19
2023-02-21T22:43:13.886Z,51.93
2023-02-21T22:45:48.142Z,52.25
2023-02-21T22:48:20.677Z,51.87
2023-02-21T22:50:50.447Z,52.00
2023-02-21T22:56:16.297Z,52.12
2023-02-21T22:58:45.595Z,52.49
2023-02-21T23:01:17.690Z,52.18
2023-02-21T23:03:47.312Z,52.19
2023-02-21T23:06:19.801Z,52.04
2023-02-21T23:08:49.818Z,52.16
2023-02-21T23:11:20.357Z,52.11
2023-02-21T23:13:48.964Z,52.33
2023-02-21T23:16:20.729Z,52.14
2023-02-21T23:18:50.628Z,52.06
2023-02-21T23:21:23.158Z,52.04
2023-02-21T23:23:51.917Z,52.44
2023-02-21T23:26:22.222Z,52.29
2023-02-21T23:28:51.007Z,52.26
2023-02-21T23:31:21.314Z,52.27
2023-02-21T23:33:53.804Z,52.59
2023-02-21T23:36:23.723Z,52.19
2023-02-21T23:38:52.865Z,52.45
2023-02-21T23:41:22.080Z,52.28
2023-02-21T23:43:51.594Z,52.29
2023-02-21T23:46:23.836Z,52.21
2023-02-21T23:48:54.030Z,52.22
2023-02-21T23:51:23.090Z,52.39
2023-02-21T23:53:51.148Z,52.35
2023-02-21T23:56:19.218Z,52.34
2023-02-21T23:58:47.913Z,52.24
